Airfield :
LOGIN :

Register | Disclaimer

   EN    FR    IT 

 










Legend :    VFR   Marginal VFR   IFR   Intensive IFR   Very Intensive IFR
Visi :
Ceiling :
>= 8 km
>= 3000ft
5 to 8 km
1000 to 3000 ft
1500m to 5 km
500 to 1000 ft
800 to 1500m
200 to 500 ft
< 800m
< 200 ft
Symbols :   Thunderstorms  Fog  Heavy snow  Heavy precipitations  Wind > 20 kt
SIGMETs :     Misc.  Thunderstorms  Icing  Turbulence  Mountain Waves  Volcanic Ashes






- Airport Elevation : 26 ft


ETNT - Wittmundhaven AB

CURRENT METAR :
  • 181920Z 21013KT 9999 FEW020 SCT060 11/07 Q1003 BLU+

EXPIRED METARs :
  • 181820Z 21014KT 9999 FEW020 SCT060 12/07 Q1003 BLU+
  • 181720Z 21014KT 9999 FEW018 SCT023TCU 12/08 Q1002 BLU+
  • 181620Z 22013KT 9999 FEW016 SCT020TCU 12/08 Q1002 BLU+

TAF TAF ETNT
Valid from the 18 at 17:00 until the 19 at 02:00 UTC


181600Z 1817/1902 20015G25KT 8000 NSW SCT015 BKN040
PROB30 1817/1819 22020G35KT 2500 TSRA BKN006 BKN015CB
BECMG 1820/1822 18012G22KT 9999 NSW SCT020 BY ETGL



MET'MAP, your aeronautical weather chart ! - Copyright ORBIFLY December 2007 - Disclaimer

ORBIFLY MET'MAP TEAM :

Programming & Development : Alexandra Zaïnal
Concept & Development : Baudouin d'Aumeries
Co-Development & Prog : Marc-Olivier Méhu
Technical & hardware support : Manuel Goepfert

Contact : metmap@orbifly.com




SOURCES & CREDITS :

   NOAA